sensor_id;sensor_type;location;lat;lon;timestamp;pressure;altitude;pressure_sealevel;temperature;humidity
19236;BME280;9752;54.270;12.470;2023-03-14T00:03:09;99061.31;;;8.33;100.00
19236;BME280;9752;54.270;12.470;2023-03-14T00:08:11;99071.88;;;8.39;100.00
19236;BME280;9752;54.270;12.470;2023-03-14T00:13:14;99088.72;;;8.30;100.00
19236;BME280;9752;54.270;12.470;2023-03-14T00:18:17;99122.34;;;8.31;100.00
19236;BME280;9752;54.270;12.470;2023-03-14T00:23:20;99161.34;;;8.37;100.00
19236;BME280;9752;54.270;12.470;2023-03-14T00:28:22;99181.84;;;8.52;100.00
19236;BME280;9752;54.270;12.470;2023-03-14T00:33:25;99173.63;;;8.42;100.00
19236;BME280;9752;54.270;12.470;2023-03-14T00:38:28;99182.53;;;8.48;100.00
19236;BME280;9752;54.270;12.470;2023-03-14T00:43:30;99206.91;;;8.55;100.00
19236;BME280;9752;54.270;12.470;2023-03-14T00:48:36;99231.75;;;8.72;100.00
19236;BME280;9752;54.270;12.470;2023-03-14T00:53:39;99242.94;;;8.71;100.00
19236;BME280;9752;54.270;12.470;2023-03-14T00:58:42;99248.28;;;8.76;100.00
19236;BME280;9752;54.270;12.470;2023-03-14T01:03:52;99253.09;;;8.88;100.00
19236;BME280;9752;54.270;12.470;2023-03-14T01:08:55;99252.84;;;9.03;100.00
19236;BME280;9752;54.270;12.470;2023-03-14T01:13:57;99246.50;;;8.94;100.00
19236;BME280;9752;54.270;12.470;2023-03-14T01:19:04;99240.84;;;9.05;100.00
19236;BME280;9752;54.270;12.470;2023-03-14T01:24:06;99215.88;;;9.26;100.00
19236;BME280;9752;54.270;12.470;2023-03-14T01:29:08;99176.72;;;9.40;100.00
19236;BME280;9752;54.270;12.470;2023-03-14T01:34:17;99155.66;;;9.30;100.00
19236;BME280;9752;54.270;12.470;2023-03-14T01:39:19;99140.66;;;9.22;100.00
19236;BME280;9752;54.270;12.470;2023-03-14T01:44:22;99122.97;;;9.10;100.00
19236;BME280;9752;54.270;12.470;2023-03-14T01:49:27;99120.88;;;9.22;100.00
19236;BME280;9752;54.270;12.470;2023-03-14T01:54:37;99133.16;;;9.28;100.00
19236;BME280;9752;54.270;12.470;2023-03-14T01:59:45;99141.84;;;9.52;100.00
19236;BME280;9752;54.270;12.470;2023-03-14T02:04:51;99121.59;;;9.89;100.00
19236;BME280;9752;54.270;12.470;2023-03-14T02:09:57;99109.78;;;9.73;100.00
19236;BME280;9752;54.270;12.470;2023-03-14T02:15:06;99068.09;;;9.65;100.00
19236;BME280;9752;54.270;12.470;2023-03-14T02:20:33;99057.38;;;9.54;100.00
19236;BME280;9752;54.270;12.470;2023-03-14T02:25:40;99041.59;;;9.48;100.00
19236;BME280;9752;54.270;12.470;2023-03-14T02:30:46;99020.03;;;9.48;100.00
19236;BME280;9752;54.270;12.470;2023-03-14T02:35:51;98995.03;;;9.48;100.00
19236;BME280;9752;54.270;12.470;2023-03-14T02:40:54;98986.59;;;9.54;100.00
19236;BME280;9752;54.270;12.470;2023-03-14T02:46:00;98998.72;;;9.55;100.00
19236;BME280;9752;54.270;12.470;2023-03-14T02:51:04;98995.69;;;9.43;100.00
19236;BME280;9752;54.270;12.470;2023-03-14T02:56:08;98967.28;;;9.44;100.00
19236;BME280;9752;54.270;12.470;2023-03-14T03:01:14;98955.84;;;9.37;100.00
19236;BME280;9752;54.270;12.470;2023-03-14T03:06:17;98962.69;;;9.37;100.00
19236;BME280;9752;54.270;12.470;2023-03-14T03:11:20;98950.34;;;9.54;100.00
19236;BME280;9752;54.270;12.470;2023-03-14T03:16:23;98944.69;;;9.64;100.00
19236;BME280;9752;54.270;12.470;2023-03-14T03:21:31;98937.38;;;9.78;100.00
19236;BME280;9752;54.270;12.470;2023-03-14T03:26:33;98932.75;;;9.69;100.00
19236;BME280;9752;54.270;12.470;2023-03-14T03:31:41;98944.78;;;9.67;100.00
19236;BME280;9752;54.270;12.470;2023-03-14T03:36:46;98936.84;;;9.88;100.00
19236;BME280;9752;54.270;12.470;2023-03-14T03:41:50;98927.25;;;10.11;100.00
19236;BME280;9752;54.270;12.470;2023-03-14T03:46:54;98917.13;;;10.19;100.00
19236;BME280;9752;54.270;12.470;2023-03-14T03:51:56;98893.19;;;10.28;100.00
19236;BME280;9752;54.270;12.470;2023-03-14T03:56:58;98875.28;;;10.34;100.00
19236;BME280;9752;54.270;12.470;2023-03-14T04:02:03;98862.78;;;10.22;100.00
19236;BME280;9752;54.270;12.470;2023-03-14T04:07:04;98856.63;;;10.19;100.00
19236;BME280;9752;54.270;12.470;2023-03-14T04:12:06;98840.09;;;10.13;100.00
19236;BME280;9752;54.270;12.470;2023-03-14T04:17:29;98844.63;;;10.21;100.00
19236;BME280;9752;54.270;12.470;2023-03-14T04:22:31;98834.34;;;10.24;100.00
19236;BME280;9752;54.270;12.470;2023-03-14T04:27:34;98808.09;;;10.11;100.00
19236;BME280;9752;54.270;12.470;2023-03-14T04:32:40;98767.28;;;9.75;100.00
19236;BME280;9752;54.270;12.470;2023-03-14T04:37:41;98755.88;;;9.42;100.00
19236;BME280;9752;54.270;12.470;2023-03-14T04:42:45;98767.47;;;9.27;100.00
19236;BME280;9752;54.270;12.470;2023-03-14T04:47:48;98761.06;;;9.14;100.00
19236;BME280;9752;54.270;12.470;2023-03-14T04:52:53;98770.09;;;9.02;100.00
19236;BME280;9752;54.270;12.470;2023-03-14T04:57:55;98778.78;;;9.04;100.00
19236;BME280;9752;54.270;12.470;2023-03-14T05:02:59;98787.28;;;8.99;100.00
19236;BME280;9752;54.270;12.470;2023-03-14T05:08:04;98794.84;;;8.95;100.00
19236;BME280;9752;54.270;12.470;2023-03-14T05:13:15;98804.94;;;8.87;100.00
19236;BME280;9752;54.270;12.470;2023-03-14T05:18:36;98817.72;;;8.83;100.00
19236;BME280;9752;54.270;12.470;2023-03-14T05:23:48;98838.66;;;8.90;100.00
19236;BME280;9752;54.270;12.470;2023-03-14T05:29:09;98844.56;;;9.12;100.00
19236;BME280;9752;54.270;12.470;2023-03-14T05:34:27;98832.88;;;9.23;100.00
19236;BME280;9752;54.270;12.470;2023-03-14T05:39:41;98822.28;;;9.15;100.00
19236;BME280;9752;54.270;12.470;2023-03-14T05:45:03;98812.53;;;9.08;100.00
19236;BME280;9752;54.270;12.470;2023-03-14T05:50:26;98806.66;;;9.12;100.00
19236;BME280;9752;54.270;12.470;2023-03-14T05:55:55;98801.22;;;9.05;100.00
19236;BME280;9752;54.270;12.470;2023-03-14T06:01:20;98808.16;;;9.06;100.00
19236;BME280;9752;54.270;12.470;2023-03-14T06:06:41;98807.38;;;9.08;100.00
19236;BME280;9752;54.270;12.470;2023-03-14T06:11:44;98807.81;;;9.21;100.00
19236;BME280;9752;54.270;12.470;2023-03-14T06:16:47;98815.75;;;9.27;100.00
19236;BME280;9752;54.270;12.470;2023-03-14T06:21:52;98804.38;;;9.47;100.00
19236;BME280;9752;54.270;12.470;2023-03-14T06:26:54;98792.94;;;9.68;100.00
19236;BME280;9752;54.270;12.470;2023-03-14T06:31:56;98784.06;;;9.88;100.00
19236;BME280;9752;54.270;12.470;2023-03-14T06:36:59;98764.53;;;9.98;100.00
19236;BME280;9752;54.270;12.470;2023-03-14T06:42:01;98759.03;;;10.18;100.00
19236;BME280;9752;54.270;12.470;2023-03-14T06:47:04;98751.31;;;10.49;100.00
19236;BME280;9752;54.270;12.470;2023-03-14T06:52:08;98735.09;;;10.57;100.00
19236;BME280;9752;54.270;12.470;2023-03-14T06:57:10;98731.81;;;10.64;100.00
19236;BME280;9752;54.270;12.470;2023-03-14T07:02:12;98723.50;;;11.10;100.00
19236;BME280;9752;54.270;12.470;2023-03-14T07:07:16;98702.44;;;11.33;100.00
19236;BME280;9752;54.270;12.470;2023-03-14T07:12:18;98693.63;;;11.26;100.00
19236;BME280;9752;54.270;12.470;2023-03-14T07:17:20;98686.94;;;11.38;100.00
19236;BME280;9752;54.270;12.470;2023-03-14T07:22:23;98677.31;;;11.71;100.00
19236;BME280;9752;54.270;12.470;2023-03-14T07:27:25;98664.34;;;11.71;100.00
19236;BME280;9752;54.270;12.470;2023-03-14T07:32:26;98658.63;;;11.88;100.00
19236;BME280;9752;54.270;12.470;2023-03-14T07:37:30;98652.34;;;11.77;100.00
19236;BME280;9752;54.270;12.470;2023-03-14T07:42:34;98664.84;;;11.55;100.00
19236;BME280;9752;54.270;12.470;2023-03-14T07:47:50;98670.41;;;11.32;100.00
19236;BME280;9752;54.270;12.470;2023-03-14T07:52:53;98673.41;;;11.13;100.00
19236;BME280;9752;54.270;12.470;2023-03-14T07:57:55;98669.69;;;11.02;100.00
19236;BME280;9752;54.270;12.470;2023-03-14T08:02:57;98689.13;;;10.84;100.00
19236;BME280;9752;54.270;12.470;2023-03-14T08:08:00;98708.03;;;10.45;100.00
19236;BME280;9752;54.270;12.470;2023-03-14T08:13:01;98736.41;;;9.82;100.00
19236;BME280;9752;54.270;12.470;2023-03-14T08:18:03;98743.97;;;8.68;100.00
19236;BME280;9752;54.270;12.470;2023-03-14T08:23:06;98772.06;;;8.35;100.00
19236;BME280;9752;54.270;12.470;2023-03-14T08:28:08;98807.69;;;8.21;100.00
19236;BME280;9752;54.270;12.470;2023-03-14T08:33:10;98819.47;;;8.59;100.00
19236;BME280;9752;54.270;12.470;2023-03-14T08:38:13;98864.94;;;9.03;100.00
19236;BME280;9752;54.270;12.470;2023-03-14T08:43:16;98911.13;;;9.42;100.00
19236;BME280;9752;54.270;12.470;2023-03-14T08:48:18;98925.94;;;9.71;100.00
19236;BME280;9752;54.270;12.470;2023-03-14T08:53:21;98940.88;;;9.80;100.00
19236;BME280;9752;54.270;12.470;2023-03-14T08:58:23;98951.06;;;10.01;100.00
19236;BME280;9752;54.270;12.470;2023-03-14T09:03:25;98954.31;;;10.48;100.00
19236;BME280;9752;54.270;12.470;2023-03-14T09:08:28;98945.81;;;10.52;100.00
19236;BME280;9752;54.270;12.470;2023-03-14T09:13:30;98945.94;;;10.30;100.00
19236;BME280;9752;54.270;12.470;2023-03-14T09:18:31;98941.47;;;10.51;100.00
19236;BME280;9752;54.270;12.470;2023-03-14T09:23:34;98908.97;;;10.63;100.00
19236;BME280;9752;54.270;12.470;2023-03-14T09:28:36;98861.16;;;10.53;100.00
19236;BME280;9752;54.270;12.470;2023-03-14T09:33:38;98853.69;;;10.64;100.00
19236;BME280;9752;54.270;12.470;2023-03-14T09:38:41;98849.56;;;11.36;100.00
19236;BME280;9752;54.270;12.470;2023-03-14T09:43:45;98835.63;;;11.32;100.00
19236;BME280;9752;54.270;12.470;2023-03-14T09:48:47;98797.06;;;11.46;100.00
19236;BME280;9752;54.270;12.470;2023-03-14T09:53:50;98770.00;;;11.74;100.00
19236;BME280;9752;54.270;12.470;2023-03-14T09:58:55;98746.75;;;11.79;100.00
19236;BME280;9752;54.270;12.470;2023-03-14T10:04:01;98723.66;;;11.53;100.00
19236;BME280;9752;54.270;12.470;2023-03-14T10:09:05;98715.78;;;11.88;100.00
19236;BME280;9752;54.270;12.470;2023-03-14T10:14:08;98702.72;;;11.85;100.00
19236;BME280;9752;54.270;12.470;2023-03-14T10:19:12;98699.78;;;11.69;100.00
19236;BME280;9752;54.270;12.470;2023-03-14T10:24:25;98701.22;;;11.95;100.00
19236;BME280;9752;54.270;12.470;2023-03-14T10:29:28;98689.44;;;12.10;100.00
19236;BME280;9752;54.270;12.470;2023-03-14T10:34:32;98669.19;;;12.40;100.00
19236;BME280;9752;54.270;12.470;2023-03-14T10:39:41;98664.38;;;12.63;100.00
19236;BME280;9752;54.270;12.470;2023-03-14T10:44:48;98652.88;;;12.48;100.00
19236;BME280;9752;54.270;12.470;2023-03-14T10:49:51;98659.75;;;12.45;100.00
19236;BME280;9752;54.270;12.470;2023-03-14T10:54:57;98658.72;;;12.35;100.00
19236;BME280;9752;54.270;12.470;2023-03-14T10:59:59;98651.53;;;12.23;100.00
19236;BME280;9752;54.270;12.470;2023-03-14T11:05:18;98650.66;;;12.23;100.00
19236;BME280;9752;54.270;12.470;2023-03-14T11:10:26;98662.63;;;12.13;100.00
19236;BME280;9752;54.270;12.470;2023-03-14T11:15:34;98667.53;;;11.99;100.00
19236;BME280;9752;54.270;12.470;2023-03-14T11:20:42;98671.06;;;12.01;100.00
19236;BME280;9752;54.270;12.470;2023-03-14T11:25:54;98671.88;;;12.00;100.00
19236;BME280;9752;54.270;12.470;2023-03-14T11:31:01;98668.88;;;11.82;100.00
19236;BME280;9752;54.270;12.470;2023-03-14T11:36:07;98773.84;;;9.64;100.00
19236;BME280;9752;54.270;12.470;2023-03-14T11:41:14;98803.44;;;5.77;100.00
19236;BME280;9752;54.270;12.470;2023-03-14T11:46:20;98851.06;;;4.33;100.00
19236;BME280;9752;54.270;12.470;2023-03-14T11:51:24;98917.03;;;3.72;100.00
19236;BME280;9752;54.270;12.470;2023-03-14T11:56:33;98947.44;;;3.51;100.00
19236;BME280;9752;54.270;12.470;2023-03-14T12:01:52;99002.88;;;3.21;100.00
19236;BME280;9752;54.270;12.470;2023-03-14T12:06:56;99044.50;;;3.17;100.00
19236;BME280;9752;54.270;12.470;2023-03-14T12:12:00;99077.22;;;3.08;100.00
19236;BME280;9752;54.270;12.470;2023-03-14T12:17:05;99132.50;;;3.04;100.00
19236;BME280;9752;54.270;12.470;2023-03-14T12:22:23;99151.38;;;3.20;100.00
19236;BME280;9752;54.270;12.470;2023-03-14T12:33:30;99200.44;;;2.59;100.00
19236;BME280;9752;54.270;12.470;2023-03-14T12:38:56;99229.88;;;2.27;100.00
19236;BME280;9752;54.270;12.470;2023-03-14T12:49:47;99299.88;;;2.16;100.00
19236;BME280;9752;54.270;12.470;2023-03-14T12:54:54;99336.50;;;2.15;100.00
19236;BME280;9752;54.270;12.470;2023-03-14T13:00:02;99347.19;;;2.09;100.00
19236;BME280;9752;54.270;12.470;2023-03-14T13:05:13;99364.06;;;2.19;100.00
19236;BME280;9752;54.270;12.470;2023-03-14T13:10:18;99373.28;;;2.17;100.00
19236;BME280;9752;54.270;12.470;2023-03-14T13:15:27;99381.50;;;2.25;100.00
19236;BME280;9752;54.270;12.470;2023-03-14T13:20:34;99394.13;;;2.47;100.00
19236;BME280;9752;54.270;12.470;2023-03-14T13:25:37;99395.25;;;2.39;100.00
19236;BME280;9752;54.270;12.470;2023-03-14T13:30:40;99404.22;;;2.57;100.00
19236;BME280;9752;54.270;12.470;2023-03-14T13:35:45;99405.53;;;2.64;100.00
19236;BME280;9752;54.270;12.470;2023-03-14T13:40:48;99408.22;;;2.79;100.00
19236;BME280;9752;54.270;12.470;2023-03-14T13:45:52;99427.47;;;2.85;100.00
19236;BME280;9752;54.270;12.470;2023-03-14T13:50:59;99419.00;;;3.11;100.00
19236;BME280;9752;54.270;12.470;2023-03-14T13:56:02;99443.28;;;3.30;100.00
19236;BME280;9752;54.270;12.470;2023-03-14T14:01:13;99440.75;;;3.05;100.00
19236;BME280;9752;54.270;12.470;2023-03-14T14:06:31;99459.66;;;3.07;100.00
19236;BME280;9752;54.270;12.470;2023-03-14T14:11:38;99470.22;;;2.86;100.00
19236;BME280;9752;54.270;12.470;2023-03-14T14:16:44;99489.16;;;2.88;100.00
19236;BME280;9752;54.270;12.470;2023-03-14T14:21:49;99506.28;;;2.89;100.00
19236;BME280;9752;54.270;12.470;2023-03-14T14:26:52;99523.72;;;3.07;100.00
19236;BME280;9752;54.270;12.470;2023-03-14T14:32:01;99541.19;;;3.12;100.00
19236;BME280;9752;54.270;12.470;2023-03-14T14:37:05;99547.81;;;3.22;100.00
19236;BME280;9752;54.270;12.470;2023-03-14T14:42:13;99566.81;;;3.38;100.00
19236;BME280;9752;54.270;12.470;2023-03-14T14:47:18;99565.09;;;3.50;100.00
19236;BME280;9752;54.270;12.470;2023-03-14T14:52:33;99572.44;;;3.57;100.00
19236;BME280;9752;54.270;12.470;2023-03-14T14:57:38;99558.84;;;3.71;100.00
19236;BME280;9752;54.270;12.470;2023-03-14T15:02:46;99548.91;;;3.76;100.00
19236;BME280;9752;54.270;12.470;2023-03-14T15:07:50;99540.63;;;3.80;100.00
19236;BME280;9752;54.270;12.470;2023-03-14T15:12:52;99552.66;;;3.81;100.00
19236;BME280;9752;54.270;12.470;2023-03-14T15:17:54;99566.06;;;3.77;100.00
19236;BME280;9752;54.270;12.470;2023-03-14T15:22:57;99536.28;;;3.79;100.00
19236;BME280;9752;54.270;12.470;2023-03-14T15:27:59;99535.50;;;3.80;100.00
19236;BME280;9752;54.270;12.470;2023-03-14T15:33:00;99530.16;;;3.77;100.00
19236;BME280;9752;54.270;12.470;2023-03-14T15:38:03;99547.75;;;3.84;100.00
19236;BME280;9752;54.270;12.470;2023-03-14T15:43:05;99539.56;;;3.90;100.00
19236;BME280;9752;54.270;12.470;2023-03-14T15:48:14;99540.44;;;3.90;100.00
19236;BME280;9752;54.270;12.470;2023-03-14T15:53:18;99537.19;;;3.80;100.00
19236;BME280;9752;54.270;12.470;2023-03-14T15:58:20;99548.44;;;3.82;100.00
19236;BME280;9752;54.270;12.470;2023-03-14T16:03:22;99543.50;;;3.85;100.00
19236;BME280;9752;54.270;12.470;2023-03-14T16:08:26;99534.63;;;3.80;100.00
19236;BME280;9752;54.270;12.470;2023-03-14T16:13:29;99544.19;;;3.82;100.00
19236;BME280;9752;54.270;12.470;2023-03-14T16:18:32;99559.69;;;3.84;100.00
19236;BME280;9752;54.270;12.470;2023-03-14T16:23:36;99576.75;;;3.83;100.00
19236;BME280;9752;54.270;12.470;2023-03-14T16:28:38;99578.31;;;3.81;100.00
19236;BME280;9752;54.270;12.470;2023-03-14T16:33:40;99594.13;;;3.87;100.00
19236;BME280;9752;54.270;12.470;2023-03-14T16:38:44;99597.78;;;3.91;100.00
19236;BME280;9752;54.270;12.470;2023-03-14T16:43:46;99607.53;;;3.83;100.00
19236;BME280;9752;54.270;12.470;2023-03-14T16:48:51;99631.19;;;3.79;100.00
19236;BME280;9752;54.270;12.470;2023-03-14T16:53:54;99631.97;;;3.78;100.00
19236;BME280;9752;54.270;12.470;2023-03-14T16:58:55;99631.41;;;3.82;100.00
19236;BME280;9752;54.270;12.470;2023-03-14T17:03:57;99644.22;;;3.82;100.00
19236;BME280;9752;54.270;12.470;2023-03-14T17:09:00;99664.69;;;3.69;100.00
19236;BME280;9752;54.270;12.470;2023-03-14T17:14:04;99675.72;;;3.68;100.00
19236;BME280;9752;54.270;12.470;2023-03-14T17:19:05;99689.22;;;3.65;100.00
19236;BME280;9752;54.270;12.470;2023-03-14T17:24:09;99708.63;;;3.62;100.00
19236;BME280;9752;54.270;12.470;2023-03-14T17:29:10;99703.91;;;3.68;100.00
19236;BME280;9752;54.270;12.470;2023-03-14T17:34:12;99714.97;;;3.67;100.00
19236;BME280;9752;54.270;12.470;2023-03-14T17:39:15;99737.81;;;3.64;100.00
19236;BME280;9752;54.270;12.470;2023-03-14T17:44:17;99740.50;;;3.65;100.00
19236;BME280;9752;54.270;12.470;2023-03-14T17:49:18;99770.41;;;3.65;100.00
19236;BME280;9752;54.270;12.470;2023-03-14T17:54:21;99782.53;;;3.67;100.00
19236;BME280;9752;54.270;12.470;2023-03-14T17:59:23;99782.88;;;3.60;100.00
19236;BME280;9752;54.270;12.470;2023-03-14T18:04:25;99776.66;;;3.57;100.00
19236;BME280;9752;54.270;12.470;2023-03-14T18:09:29;99803.06;;;3.56;100.00
19236;BME280;9752;54.270;12.470;2023-03-14T18:14:31;99820.00;;;3.54;100.00
19236;BME280;9752;54.270;12.470;2023-03-14T18:19:32;99838.53;;;3.49;100.00
19236;BME280;9752;54.270;12.470;2023-03-14T18:24:35;99847.09;;;3.62;100.00
19236;BME280;9752;54.270;12.470;2023-03-14T18:29:37;99858.59;;;3.55;100.00
19236;BME280;9752;54.270;12.470;2023-03-14T18:34:39;99873.41;;;3.47;100.00
19236;BME280;9752;54.270;12.470;2023-03-14T18:39:43;99897.38;;;3.36;100.00
19236;BME280;9752;54.270;12.470;2023-03-14T18:44:45;99907.38;;;3.45;100.00
19236;BME280;9752;54.270;12.470;2023-03-14T18:49:46;99920.38;;;3.24;100.00
19236;BME280;9752;54.270;12.470;2023-03-14T18:54:49;99922.88;;;3.23;100.00
19236;BME280;9752;54.270;12.470;2023-03-14T18:59:51;99928.00;;;3.23;100.00
19236;BME280;9752;54.270;12.470;2023-03-14T19:04:55;99949.13;;;3.20;100.00
19236;BME280;9752;54.270;12.470;2023-03-14T19:09:59;99966.19;;;3.20;100.00
19236;BME280;9752;54.270;12.470;2023-03-14T19:15:00;99983.28;;;3.09;100.00
19236;BME280;9752;54.270;12.470;2023-03-14T19:20:03;99980.38;;;3.04;100.00
19236;BME280;9752;54.270;12.470;2023-03-14T19:25:08;100028.34;;;2.95;100.00
19236;BME280;9752;54.270;12.470;2023-03-14T19:30:10;99996.47;;;2.91;100.00
19236;BME280;9752;54.270;12.470;2023-03-14T19:35:12;100018.91;;;2.94;100.00
19236;BME280;9752;54.270;12.470;2023-03-14T19:40:16;100030.03;;;2.95;100.00
19236;BME280;9752;54.270;12.470;2023-03-14T19:45:19;100030.66;;;2.92;100.00
19236;BME280;9752;54.270;12.470;2023-03-14T19:50:21;100042.72;;;2.93;100.00
19236;BME280;9752;54.270;12.470;2023-03-14T19:55:26;100037.25;;;2.88;100.00
19236;BME280;9752;54.270;12.470;2023-03-14T20:00:28;100055.50;;;2.93;100.00
19236;BME280;9752;54.270;12.470;2023-03-14T20:05:30;100075.28;;;2.84;100.00
19236;BME280;9752;54.270;12.470;2023-03-14T20:10:34;100088.66;;;2.69;100.00
19236;BME280;9752;54.270;12.470;2023-03-14T20:15:38;100104.84;;;2.48;100.00
19236;BME280;9752;54.270;12.470;2023-03-14T20:20:40;100123.19;;;2.32;100.00
19236;BME280;9752;54.270;12.470;2023-03-14T20:25:43;100128.44;;;2.23;100.00
19236;BME280;9752;54.270;12.470;2023-03-14T20:30:53;100156.09;;;2.17;100.00
19236;BME280;9752;54.270;12.470;2023-03-14T20:35:55;100165.44;;;2.17;100.00
19236;BME280;9752;54.270;12.470;2023-03-14T20:40:59;100184.97;;;2.16;100.00
19236;BME280;9752;54.270;12.470;2023-03-14T20:46:01;100191.38;;;2.21;100.00
19236;BME280;9752;54.270;12.470;2023-03-14T20:51:03;100199.59;;;2.17;100.00
19236;BME280;9752;54.270;12.470;2023-03-14T20:56:07;100218.25;;;2.26;100.00
19236;BME280;9752;54.270;12.470;2023-03-14T21:01:10;100228.13;;;2.32;100.00
19236;BME280;9752;54.270;12.470;2023-03-14T21:06:12;100230.53;;;2.41;100.00
19236;BME280;9752;54.270;12.470;2023-03-14T21:11:15;100231.81;;;2.36;100.00
19236;BME280;9752;54.270;12.470;2023-03-14T21:16:16;100241.53;;;2.29;100.00
19236;BME280;9752;54.270;12.470;2023-03-14T21:21:18;100249.59;;;2.34;100.00
19236;BME280;9752;54.270;12.470;2023-03-14T21:26:22;100244.84;;;2.39;100.00
19236;BME280;9752;54.270;12.470;2023-03-14T21:31:24;100261.66;;;2.45;100.00
19236;BME280;9752;54.270;12.470;2023-03-14T21:36:26;100262.66;;;2.47;100.00
19236;BME280;9752;54.270;12.470;2023-03-14T21:41:29;100272.66;;;2.54;100.00
19236;BME280;9752;54.270;12.470;2023-03-14T21:46:30;100277.13;;;2.47;100.00
19236;BME280;9752;54.270;12.470;2023-03-14T21:51:35;100291.97;;;2.30;100.00
19236;BME280;9752;54.270;12.470;2023-03-14T21:56:38;100286.06;;;2.31;100.00
19236;BME280;9752;54.270;12.470;2023-03-14T22:01:40;100289.66;;;2.33;100.00
19236;BME280;9752;54.270;12.470;2023-03-14T22:06:42;100305.25;;;2.37;100.00
19236;BME280;9752;54.270;12.470;2023-03-14T22:11:45;100310.66;;;2.50;100.00
19236;BME280;9752;54.270;12.470;2023-03-14T22:16:47;100319.63;;;2.55;100.00
19236;BME280;9752;54.270;12.470;2023-03-14T22:21:49;100330.13;;;2.58;100.00
19236;BME280;9752;54.270;12.470;2023-03-14T22:26:52;100332.81;;;2.49;100.00
19236;BME280;9752;54.270;12.470;2023-03-14T22:31:54;100331.78;;;2.47;100.00
19236;BME280;9752;54.270;12.470;2023-03-14T22:36:56;100351.59;;;2.50;100.00
19236;BME280;9752;54.270;12.470;2023-03-14T22:42:00;100363.63;;;2.41;100.00
19236;BME280;9752;54.270;12.470;2023-03-14T22:47:02;100367.19;;;2.43;100.00
19236;BME280;9752;54.270;12.470;2023-03-14T22:52:04;100384.38;;;2.44;100.00
19236;BME280;9752;54.270;12.470;2023-03-14T22:57:07;100383.06;;;2.39;100.00
19236;BME280;9752;54.270;12.470;2023-03-14T23:02:09;100386.28;;;2.36;100.00
19236;BME280;9752;54.270;12.470;2023-03-14T23:07:10;100393.94;;;2.26;100.00
19236;BME280;9752;54.270;12.470;2023-03-14T23:12:14;100409.09;;;2.14;100.00
19236;BME280;9752;54.270;12.470;2023-03-14T23:17:16;100418.16;;;2.10;100.00
19236;BME280;9752;54.270;12.470;2023-03-14T23:22:19;100415.56;;;2.00;100.00
19236;BME280;9752;54.270;12.470;2023-03-14T23:27:22;100437.84;;;2.01;100.00
19236;BME280;9752;54.270;12.470;2023-03-14T23:32:23;100426.09;;;2.03;100.00
19236;BME280;9752;54.270;12.470;2023-03-14T23:37:25;100426.66;;;1.90;100.00
19236;BME280;9752;54.270;12.470;2023-03-14T23:42:28;100438.94;;;1.94;100.00
19236;BME280;9752;54.270;12.470;2023-03-14T23:47:30;100450.38;;;1.79;100.00
19236;BME280;9752;54.270;12.470;2023-03-14T23:52:32;100454.84;;;1.82;100.00
19236;BME280;9752;54.270;12.470;2023-03-14T23:57:35;100464.41;;;1.74;100.00
